Time;durP1;ratioP1;P1;durP2;ratioP2;P2;SDS_P1;SDS_P2;PMS_P1;PMS_P2;Temp;Humidity;BMP_temperature;BMP_pressure;BME280_temperature;BME280_humidity;BME280_pressure;Samples;Min_cycle;Max_cycle;Signal;HPM_P1;HPM_P2
2020/12/23 00:00:51;;;;;;;15.82;10.25;;;;;;;10.90;100.00;100713.25;4948057;28;20050;-53
2020/12/23 00:03:18;;;;;;;18.08;10.93;;;;;;;10.85;100.00;100719.09;4946607;28;20313;-52
2020/12/23 00:05:46;;;;;;;25.75;11.93;;;;;;;10.80;100.00;100710.72;4941130;28;20052;-52
2020/12/23 00:08:14;;;;;;;19.45;11.90;;;;;;;10.80;100.00;100711.59;4947023;28;20055;-52
2020/12/23 00:10:41;;;;;;;17.40;10.50;;;;;;;10.79;100.00;100715.25;4944953;28;20082;-49
2020/12/23 00:13:08;;;;;;;20.52;11.75;;;;;;;10.80;100.00;100716.94;4946537;28;20043;-51
2020/12/23 00:15:35;;;;;;;21.40;12.60;;;;;;;10.82;100.00;100708.75;4945442;28;20062;-50
2020/12/23 00:18:01;;;;;;;21.65;12.93;;;;;;;10.91;100.00;100707.72;4947335;28;20058;-48
2020/12/23 00:20:28;;;;;;;20.02;12.35;;;;;;;10.77;100.00;100705.72;4946568;29;20082;-50
2020/12/23 00:22:55;;;;;;;18.17;11.45;;;;;;;10.84;100.00;100712.06;4949656;28;20062;-49
2020/12/23 00:25:23;;;;;;;19.42;12.90;;;;;;;10.85;100.00;100698.53;4943249;28;20352;-53
2020/12/23 00:27:50;;;;;;;20.17;12.85;;;;;;;10.85;100.00;100697.72;4945244;28;20275;-48
2020/12/23 00:30:19;;;;;;;23.73;14.05;;;;;;;10.75;100.00;100689.88;4947282;28;20352;-52
2020/12/23 00:32:46;;;;;;;20.23;12.05;;;;;;;10.80;100.00;100684.03;4947388;28;20050;-50
2020/12/23 00:35:13;;;;;;;19.27;11.75;;;;;;;10.76;100.00;100691.56;4942340;28;20061;-50
2020/12/23 00:37:40;;;;;;;20.92;11.43;;;;;;;10.78;100.00;100697.53;4945880;29;20142;-50
2020/12/23 00:40:09;;;;;;;17.63;11.15;;;;;;;10.79;100.00;100691.22;4943839;28;20146;-52
2020/12/23 00:42:36;;;;;;;20.90;13.07;;;;;;;10.79;100.00;100693.06;4948065;29;20050;-51
2020/12/23 00:45:04;;;;;;;17.88;11.07;;;;;;;10.81;100.00;100685.69;4943242;28;20347;-51
2020/12/23 00:47:31;;;;;;;19.13;10.77;;;;;;;10.80;100.00;100692.03;4946365;28;20050;-47
2020/12/23 00:49:58;;;;;;;17.40;10.90;;;;;;;10.84;100.00;100685.34;4951805;28;20055;-47
2020/12/23 00:52:24;;;;;;;15.48;9.88;;;;;;;10.99;100.00;100689.03;4946741;28;20039;-49
2020/12/23 00:54:51;;;;;;;15.93;10.35;;;;;;;10.88;100.00;100677.84;4945218;29;20047;-47
2020/12/23 00:57:18;;;;;;;14.15;9.38;;;;;;;10.93;100.00;100679.03;4948985;28;20059;-51
2020/12/23 00:59:46;;;;;;;13.48;8.20;;;;;;;10.86;100.00;100688.72;4951196;28;20069;-46
2020/12/23 01:02:13;;;;;;;10.38;7.60;;;;;;;10.99;100.00;100677.50;4950810;28;20171;-46
2020/12/23 01:04:40;;;;;;;12.98;7.95;;;;;;;10.87;100.00;100676.19;4946708;28;20051;-47
2020/12/23 01:07:07;;;;;;;11.73;7.68;;;;;;;10.98;100.00;100670.50;4949243;28;20121;-52
2020/12/23 01:09:34;;;;;;;9.80;6.57;;;;;;;10.93;100.00;100665.66;4948382;28;20434;-52
2020/12/23 01:12:01;;;;;;;11.57;6.82;;;;;;;10.88;100.00;100665.31;4951597;28;20049;-50
2020/12/23 01:14:29;;;;;;;8.60;5.85;;;;;;;10.87;100.00;100666.31;4947816;28;20052;-52
2020/12/23 01:16:56;;;;;;;7.80;4.90;;;;;;;10.97;100.00;100658.97;4953105;28;20054;-51
2020/12/23 01:19:23;;;;;;;10.95;6.25;;;;;;;11.00;100.00;100658.63;4951151;28;20054;-52
2020/12/23 01:21:50;;;;;;;10.82;5.97;;;;;;;10.91;100.00;100661.47;4950544;28;20062;-49
2020/12/23 01:24:17;;;;;;;9.15;5.95;;;;;;;10.87;100.00;100657.47;4947315;28;20324;-50
2020/12/23 01:26:45;;;;;;;9.40;5.13;;;;;;;10.80;100.00;100662.66;4950626;28;20107;-53
2020/12/23 01:29:12;;;;;;;9.00;5.43;;;;;;;10.82;100.00;100656.16;4950708;28;20046;-50
2020/12/23 01:31:41;;;;;;;8.75;5.93;;;;;;;10.85;100.00;100657.66;4950003;28;20051;-51
2020/12/23 01:34:09;;;;;;;7.80;4.82;;;;;;;10.89;100.00;100652.78;4946770;28;20048;-53
2020/12/23 01:36:36;;;;;;;8.27;5.22;;;;;;;10.83;100.00;100647.13;4949671;28;20043;-46
2020/12/23 01:39:03;;;;;;;7.38;4.95;;;;;;;10.99;100.00;100656.13;4949804;28;20066;-48
2020/12/23 01:41:30;;;;;;;10.32;6.70;;;;;;;10.98;100.00;100644.59;4947116;28;20047;-49
2020/12/23 01:43:58;;;;;;;11.18;7.07;;;;;;;10.98;100.00;100644.59;4949982;28;20054;-47
2020/12/23 01:46:33;;;;;;;12.20;7.93;;;;;;;11.03;100.00;100631.56;4946121;28;20175;-49
2020/12/23 01:49:03;;;;;;;14.23;8.65;;;;;;;10.99;100.00;100632.91;4949117;28;20047;-48
2020/12/23 01:51:31;;;;;;;14.57;10.18;;;;;;;10.94;100.00;100643.25;4948846;28;20050;-48
2020/12/23 01:53:58;;;;;;;12.32;8.43;;;;;;;11.01;100.00;100640.75;4946179;28;20301;-51
2020/12/23 01:56:26;;;;;;;16.50;8.90;;;;;;;11.14;100.00;100642.88;4945877;28;20354;-52
2020/12/23 01:58:56;;;;;;;13.88;9.05;;;;;;;11.07;100.00;100653.44;4952493;28;20039;-50
2020/12/23 02:01:25;;;;;;;14.93;9.82;;;;;;;11.17;100.00;100638.06;4948227;28;20439;-51
2020/12/23 02:03:52;;;;;;;14.82;9.75;;;;;;;11.25;100.00;100628.34;4948465;28;20057;-52
2020/12/23 02:06:19;;;;;;;15.90;9.68;;;;;;;11.17;100.00;100623.84;4947321;28;20162;-50
2020/12/23 02:08:50;;;;;;;13.60;8.57;;;;;;;11.29;100.00;100624.31;4949752;28;20048;-50
2020/12/23 02:11:18;;;;;;;11.57;7.95;;;;;;;11.30;100.00;100610.78;4949052;28;20066;-50
2020/12/23 02:13:45;;;;;;;9.23;6.38;;;;;;;11.35;100.00;100615.59;4947451;28;20069;-51
2020/12/23 02:16:14;;;;;;;7.85;5.80;;;;;;;11.37;100.00;100611.75;4943334;28;20061;-49
2020/12/23 02:18:43;;;;;;;7.72;5.13;;;;;;;11.40;100.00;100615.06;4948932;29;20340;-52
2020/12/23 02:21:23;;;;;;;6.25;4.10;;;;;;;11.39;100.00;100600.06;4948404;28;20051;-48
2020/12/23 02:23:51;;;;;;;5.80;3.70;;;;;;;11.34;100.00;100598.72;4946456;28;20163;-49
2020/12/23 02:26:18;;;;;;;6.45;3.58;;;;;;;11.46;100.00;100601.03;4948351;28;20055;-46
2020/12/23 02:28:45;;;;;;;4.80;3.35;;;;;;;11.47;100.00;100600.84;4950331;28;20062;-52
2020/12/23 02:31:12;;;;;;;5.55;3.35;;;;;;;11.44;100.00;100603.88;4947482;28;20054;-45
2020/12/23 02:33:39;;;;;;;5.10;2.97;;;;;;;11.47;100.00;100606.19;4949439;28;20054;-46
2020/12/23 02:36:08;;;;;;;4.20;2.20;;;;;;;11.51;100.00;100596.81;4944943;28;20082;-45
2020/12/23 02:38:34;;;;;;;2.90;2.30;;;;;;;11.50;100.00;100600.50;4948163;28;20039;-50
2020/12/23 02:41:02;;;;;;;2.90;2.03;;;;;;;11.50;100.00;100589.78;4947657;29;20050;-46
2020/12/23 02:43:29;;;;;;;2.50;1.80;;;;;;;11.52;100.00;100573.56;4946960;28;20047;-47
2020/12/23 02:45:56;;;;;;;2.30;1.70;;;;;;;11.54;100.00;100574.25;4941794;28;20076;-53
2020/12/23 02:48:23;;;;;;;3.00;1.63;;;;;;;11.44;100.00;100569.13;4946695;28;20043;-51
2020/12/23 02:50:50;;;;;;;2.08;1.60;;;;;;;11.43;100.00;100577.31;4947250;28;20054;-52
2020/12/23 02:53:17;;;;;;;2.40;1.52;;;;;;;11.43;100.00;100582.66;4948283;28;20346;-50
2020/12/23 02:55:44;;;;;;;2.30;1.80;;;;;;;11.34;100.00;100571.16;4945922;28;20048;-50
2020/12/23 02:58:12;;;;;;;2.25;1.65;;;;;;;11.35;100.00;100576.34;4945671;28;20047;-51
2020/12/23 03:00:39;;;;;;;3.30;1.85;;;;;;;11.35;100.00;100571.00;4948533;28;20126;-51
2020/12/23 03:03:06;;;;;;;3.10;1.95;;;;;;;11.32;100.00;100576.66;4948116;28;20050;-50
2020/12/23 03:05:33;;;;;;;2.60;1.63;;;;;;;11.39;100.00;100592.03;4948141;28;20047;-51
2020/12/23 03:07:59;;;;;;;2.10;1.40;;;;;;;11.45;100.00;100592.16;4949329;28;20039;-50
2020/12/23 03:10:26;;;;;;;1.73;1.00;;;;;;;11.50;100.00;100586.31;4944637;28;20126;-50
2020/12/23 03:12:53;;;;;;;4.05;1.13;;;;;;;11.49;100.00;100576.59;4947031;29;20440;-50
2020/12/23 03:15:21;;;;;;;2.75;1.00;;;;;;;11.50;100.00;100578.28;4943294;28;20047;-48
2020/12/23 03:17:48;;;;;;;1.42;1.00;;;;;;;11.42;100.00;100567.63;4946494;28;20217;-49
2020/12/23 03:20:15;;;;;;;2.08;0.90;;;;;;;11.48;100.00;100569.56;4948423;28;20050;-46
2020/12/23 03:22:42;;;;;;;1.30;0.70;;;;;;;11.51;100.00;100577.25;4950851;28;20054;-50
2020/12/23 03:25:09;;;;;;;1.42;0.73;;;;;;;11.47;100.00;100563.41;4943893;28;20073;-47
2020/12/23 03:27:36;;;;;;;0.90;0.80;;;;;;;11.49;100.00;100557.88;4948560;28;20508;-52
2020/12/23 03:30:03;;;;;;;2.53;2.15;;;;;;;11.44;100.00;100550.41;4946513;28;20332;-50
2020/12/23 03:32:31;;;;;;;1.83;0.57;;;;;;;11.41;100.00;100556.09;4948043;28;20396;-51
2020/12/23 03:35:11;;;;;;;1.25;0.47;;;;;;;11.42;100.00;100554.25;4943917;28;20339;-52
2020/12/23 03:37:38;;;;;;;0.88;0.70;;;;;;;11.35;100.00;100554.09;4945965;28;20094;-51
2020/12/23 03:40:05;;;;;;;1.65;0.88;;;;;;;11.27;100.00;100563.00;4945734;29;20060;-49
2020/12/23 03:42:33;;;;;;;0.60;0.55;;;;;;;11.32;100.00;100555.28;4947980;28;20494;-47
2020/12/23 03:44:59;;;;;;;1.67;0.80;;;;;;;11.33;100.00;100559.63;4945490;28;20051;-47
2020/12/23 03:47:26;;;;;;;1.67;0.93;;;;;;;11.36;100.00;100556.59;4945514;28;20039;-48
2020/12/23 03:49:54;;;;;;;1.27;0.50;;;;;;;11.32;100.00;100547.25;4949118;28;20054;-51
2020/12/23 03:52:21;;;;;;;1.33;0.90;;;;;;;11.25;100.00;100543.63;4945475;29;20052;-44
2020/12/23 03:54:48;;;;;;;1.17;0.77;;;;;;;11.26;100.00;100531.09;4942038;28;20051;-47
2020/12/23 03:57:15;;;;;;;1.50;1.00;;;;;;;11.21;100.00;100531.59;4948269;28;20343;-45
2020/12/23 03:59:44;;;;;;;3.22;1.00;;;;;;;11.20;100.00;100540.66;4946003;28;20343;-44
2020/12/23 04:02:11;;;;;;;2.78;1.20;;;;;;;11.13;100.00;100542.38;4944768;28;20046;-47
2020/12/23 04:04:38;;;;;;;1.80;0.90;;;;;;;11.12;100.00;100533.50;4943731;28;20066;-48
2020/12/23 04:07:06;;;;;;;1.88;0.88;;;;;;;11.14;100.00;100530.66;4944364;28;20043;-44
2020/12/23 04:09:33;;;;;;;2.33;0.95;;;;;;;11.14;100.00;100536.00;4943742;28;20078;-46
2020/12/23 04:12:03;;;;;;;2.35;0.98;;;;;;;11.14;100.00;100525.28;4945271;28;20308;-46
2020/12/23 04:14:30;;;;;;;1.20;0.75;;;;;;;11.07;100.00;100519.84;4942424;28;20055;-49
2020/12/23 04:16:56;;;;;;;2.88;1.00;;;;;;;11.06;100.00;100522.66;4949362;28;20074;-50
2020/12/23 04:19:23;;;;;;;1.98;1.02;;;;;;;11.14;100.00;100519.94;4946571;28;20162;-52
2020/12/23 04:21:50;;;;;;;0.90;0.63;;;;;;;11.00;100.00;100516.16;4949966;28;20371;-49
2020/12/23 04:24:18;;;;;;;1.65;0.90;;;;;;;11.05;100.00;100523.69;4947686;28;20073;-46
2020/12/23 04:26:47;;;;;;;1.00;0.88;;;;;;;11.03;100.00;100523.84;4949281;28;20093;-51
2020/12/23 04:29:14;;;;;;;1.50;1.02;;;;;;;10.95;100.00;100531.91;4951411;28;20043;-51
2020/12/23 04:31:41;;;;;;;2.45;1.35;;;;;;;10.99;100.00;100541.25;4949594;28;20073;-50
2020/12/23 04:34:10;;;;;;;2.53;1.30;;;;;;;10.97;100.00;100541.41;4948386;28;20043;-47
2020/12/23 04:36:38;;;;;;;2.85;1.63;;;;;;;11.07;100.00;100545.72;4949607;28;20126;-50
2020/12/23 04:39:05;;;;;;;3.13;1.33;;;;;;;11.03;100.00;100546.06;4949508;28;20043;-51
2020/12/23 04:41:34;;;;;;;3.85;1.92;;;;;;;11.03;100.00;100540.72;4947462;28;20192;-52
2020/12/23 04:44:01;;;;;;;3.78;1.33;;;;;;;10.98;100.00;100536.91;4950137;28;20043;-51
2020/12/23 04:46:30;;;;;;;2.28;1.20;;;;;;;10.95;100.00;100547.94;4949555;28;20110;-51
2020/12/23 04:48:58;;;;;;;4.53;1.60;;;;;;;11.05;100.00;100537.88;4951240;28;20051;-49
2020/12/23 04:51:28;;;;;;;2.88;1.65;;;;;;;10.99;100.00;100536.72;4949597;28;20054;-51
2020/12/23 04:53:56;;;;;;;3.58;1.85;;;;;;;11.01;100.00;100542.75;4945593;28;20105;-49
2020/12/23 04:56:24;;;;;;;3.78;1.65;;;;;;;10.97;100.00;100537.88;4946292;28;20050;-50
2020/12/23 04:58:52;;;;;;;3.80;1.80;;;;;;;11.08;100.00;100526.00;4951866;29;20043;-49
2020/12/23 05:01:19;;;;;;;4.25;2.08;;;;;;;11.03;100.00;100526.53;4951133;28;20145;-51
2020/12/23 05:03:46;;;;;;;4.40;1.98;;;;;;;11.06;100.00;100519.97;4949911;28;20439;-47
2020/12/23 05:06:16;;;;;;;4.22;2.05;;;;;;;11.06;100.00;100514.63;4946795;28;20118;-53
2020/12/23 05:08:44;;;;;;;3.42;1.83;;;;;;;11.10;100.00;100510.63;4950893;28;20054;-52
2020/12/23 05:11:11;;;;;;;6.65;2.45;;;;;;;11.15;100.00;100510.94;4947370;28;20045;-52
2020/12/23 05:13:40;;;;;;;3.20;2.00;;;;;;;11.10;100.00;100518.63;4950131;28;20043;-51
2020/12/23 05:16:09;;;;;;;5.53;2.95;;;;;;;11.13;100.00;100503.09;4945194;28;20039;-51
2020/12/23 05:18:38;;;;;;;6.28;2.40;;;;;;;10.99;100.00;100515.34;4950186;28;20054;-52
2020/12/23 05:21:14;;;;;;;2.65;1.35;;;;;;;11.09;100.00;100512.47;4950114;29;20050;-50
2020/12/23 05:23:42;;;;;;;3.60;1.42;;;;;;;11.11;100.00;100514.97;4948379;28;20047;-51
2020/12/23 05:26:09;;;;;;;3.85;1.40;;;;;;;11.09;100.00;100527.69;4947182;28;20043;-50
2020/12/23 05:28:37;;;;;;;4.65;1.90;;;;;;;11.07;100.00;100519.84;4950117;28;20123;-53
2020/12/23 05:31:05;;;;;;;5.47;1.77;;;;;;;11.08;100.00;100515.31;4947428;28;20051;-48
2020/12/23 05:33:33;;;;;;;4.03;1.77;;;;;;;11.01;100.00;100528.53;4947129;28;20051;-50
2020/12/23 05:36:01;;;;;;;3.22;1.92;;;;;;;11.06;100.00;100522.66;4944647;28;20138;-53
2020/12/23 05:38:30;;;;;;;5.60;2.20;;;;;;;10.99;100.00;100525.22;4948152;28;20379;-48
2020/12/23 05:40:57;;;;;;;4.53;2.30;;;;;;;10.93;100.00;100526.72;4951972;28;20141;-50
2020/12/23 05:43:25;;;;;;;2.55;1.70;;;;;;;11.06;100.00;100528.00;4947411;28;20047;-48
2020/12/23 05:45:54;;;;;;;3.05;2.08;;;;;;;11.06;100.00;100523.50;4944357;28;20047;-49
2020/12/23 05:48:21;;;;;;;3.70;2.45;;;;;;;11.07;100.00;100527.00;4948540;28;20043;-47
2020/12/23 05:50:50;;;;;;;3.50;2.05;;;;;;;11.01;100.00;100507.16;4946674;28;20059;-47
2020/12/23 05:53:17;;;;;;;5.15;2.45;;;;;;;11.01;100.00;100518.69;4949157;28;20074;-52
2020/12/23 05:55:45;;;;;;;2.60;1.83;;;;;;;11.07;100.00;100502.94;4946819;28;20187;-52
2020/12/23 05:58:21;;;;;;;3.97;2.22;;;;;;;11.03;100.00;100500.63;4948111;28;20073;-51
2020/12/23 06:00:49;;;;;;;2.58;2.00;;;;;;;11.11;100.00;100496.25;4948838;28;20051;-50
2020/12/23 06:03:21;;;;;;;2.55;1.90;;;;;;;11.10;100.00;100486.56;4949385;28;20277;-51
2020/12/23 06:05:57;;;;;;;3.15;1.83;;;;;;;11.13;100.00;100487.06;4945939;28;20050;-51
2020/12/23 06:08:30;;;;;;;2.38;1.67;;;;;;;11.07;100.00;100478.91;4948820;28;20050;-50
2020/12/23 06:11:28;;;;;;;3.47;2.30;;;;;;;11.08;100.00;100478.72;4948360;29;20316;-51
2020/12/23 06:14:19;;;;;;;4.25;2.50;;;;;;;11.10;100.00;100478.53;4946475;28;20043;-50
2020/12/23 06:16:48;;;;;;;3.92;2.38;;;;;;;11.01;100.00;100481.28;4948310;28;20445;-50
2020/12/23 06:19:26;;;;;;;6.50;2.92;;;;;;;10.99;100.00;100469.91;4926111;29;20046;-52
2020/12/23 06:21:55;;;;;;;3.45;2.58;;;;;;;10.98;100.00;100478.94;4946695;28;20450;-49
2020/12/23 06:24:23;;;;;;;2.80;1.98;;;;;;;10.94;100.00;100468.78;4944640;28;20039;-46
2020/12/23 06:26:51;;;;;;;2.80;2.25;;;;;;;10.92;100.00;100468.97;4948528;28;20054;-50
2020/12/23 06:29:20;;;;;;;3.13;2.22;;;;;;;10.98;100.00;100476.25;4951416;28;20363;-51
2020/12/23 06:31:51;;;;;;;6.15;2.55;;;;;;;10.97;100.00;100479.97;4948282;29;20053;-49
2020/12/23 06:34:19;;;;;;;3.65;2.53;;;;;;;11.07;100.00;100481.56;4946405;28;20059;-50
2020/12/23 06:36:48;;;;;;;4.57;2.90;;;;;;;11.09;100.00;100463.53;4949936;28;20059;-51
2020/12/23 06:39:25;;;;;;;4.57;2.70;;;;;;;11.00;100.00;100463.56;4949212;28;20277;-47
2020/12/23 06:41:53;;;;;;;4.38;3.03;;;;;;;11.03;100.00;100459.72;4948620;28;20054;-51
2020/12/23 06:44:23;;;;;;;5.35;3.55;;;;;;;10.92;100.00;100447.59;4944121;28;20051;-47
2020/12/23 06:47:07;;;;;;;6.47;4.20;;;;;;;10.95;100.00;100447.22;4948404;28;20047;-52
2020/12/23 06:49:36;;;;;;;5.28;3.67;;;;;;;10.96;100.00;100448.91;4948587;28;20051;-54
2020/12/23 06:52:03;;;;;;;6.05;3.70;;;;;;;10.93;100.00;100454.59;4947380;28;20051;-49
2020/12/23 06:54:47;;;;;;;7.68;4.47;;;;;;;11.01;100.00;100443.88;4945755;28;20428;-49
2020/12/23 06:57:54;;;;;;;6.95;4.05;;;;;;;11.05;100.00;100435.50;4947203;28;20437;-50
2020/12/23 07:00:34;;;;;;;6.57;3.75;;;;;;;11.05;100.00;100430.16;4947444;28;20058;-51
2020/12/23 07:03:03;;;;;;;7.53;4.30;;;;;;;10.87;100.00;100431.22;4946893;29;20179;-52
2020/12/23 07:05:35;;;;;;;5.60;3.75;;;;;;;10.81;100.00;100434.63;4943418;28;20050;-51
2020/12/23 07:08:03;;;;;;;6.63;3.78;;;;;;;10.88;100.00;100424.88;4951175;28;20058;-50
2020/12/23 07:10:34;;;;;;;7.97;4.55;;;;;;;10.87;100.00;100411.72;4945720;29;20347;-49
2020/12/23 07:13:02;;;;;;;7.95;4.35;;;;;;;10.81;100.00;100416.75;4946444;28;20062;-51
2020/12/23 07:15:30;;;;;;;7.18;4.78;;;;;;;10.70;100.00;100417.13;4946087;28;20379;-52
2020/12/23 07:18:01;;;;;;;8.25;4.78;;;;;;;10.76;100.00;100415.59;4946931;28;20046;-48
2020/12/23 07:20:33;;;;;;;8.40;4.82;;;;;;;10.63;100.00;100416.16;4946744;29;20047;-48
2020/12/23 07:23:05;;;;;;;7.28;4.70;;;;;;;10.66;100.00;100410.47;4948742;28;20043;-52
2020/12/23 07:25:36;;;;;;;9.65;5.30;;;;;;;10.80;100.00;100401.75;4940923;28;20054;-48
2020/12/23 07:28:07;;;;;;;8.40;5.43;;;;;;;10.80;100.00;100406.22;4948260;28;21037;-52
2020/12/23 07:30:36;;;;;;;8.07;5.05;;;;;;;10.73;100.00;100389.25;4948189;28;20051;-48
2020/12/23 07:33:06;;;;;;;8.27;4.47;;;;;;;10.84;100.00;100391.53;4948535;28;20050;-47
2020/12/23 07:35:34;;;;;;;7.18;4.82;;;;;;;10.77;100.00;100401.25;4943359;28;20054;-48
2020/12/23 07:38:02;;;;;;;8.02;4.60;;;;;;;10.83;100.00;100397.84;4950446;29;20045;-45
2020/12/23 07:40:31;;;;;;;7.70;4.22;;;;;;;10.77;100.00;100385.22;4945536;28;20047;-48
2020/12/23 07:42:59;;;;;;;7.60;4.85;;;;;;;10.71;100.00;100380.59;4945880;29;20043;-48
2020/12/23 07:45:27;;;;;;;7.90;4.50;;;;;;;10.79;100.00;100381.38;4943816;28;20054;-50
2020/12/23 07:47:56;;;;;;;7.20;4.93;;;;;;;10.72;100.00;100384.91;4945693;28;20231;-52
2020/12/23 07:50:23;;;;;;;7.07;4.43;;;;;;;10.67;100.00;100380.94;4930559;28;20438;-47
2020/12/23 07:52:50;;;;;;;9.95;4.47;;;;;;;10.79;100.00;100383.22;4950693;28;20332;-52
2020/12/23 07:55:18;;;;;;;6.43;4.30;;;;;;;10.85;100.00;100379.84;4943668;28;20309;-51
2020/12/23 07:57:45;;;;;;;4.65;3.55;;;;;;;10.84;100.00;100376.34;4947692;28;20283;-51
2020/12/23 08:00:14;;;;;;;5.90;3.80;;;;;;;10.72;100.00;100371.53;4948714;28;20051;-50
2020/12/23 08:02:41;;;;;;;5.15;3.22;;;;;;;10.83;100.00;100368.47;4948196;28;20077;-50
2020/12/23 08:05:09;;;;;;;4.43;3.15;;;;;;;10.76;100.00;100375.53;4946975;28;20043;-48
2020/12/23 08:07:41;;;;;;;4.43;3.08;;;;;;;10.72;100.00;100376.88;4944168;28;20054;-49
2020/12/23 08:10:10;;;;;;;4.65;3.38;;;;;;;10.72;100.00;100372.41;4946881;28;20048;-50
2020/12/23 08:12:37;;;;;;;3.70;2.53;;;;;;;10.76;100.00;100383.53;4946869;29;20047;-47
2020/12/23 08:15:14;;;;;;;4.88;3.35;;;;;;;10.82;100.00;100380.19;4944326;28;20067;-49
2020/12/23 08:17:42;;;;;;;4.88;3.00;;;;;;;10.88;100.00;100376.00;4945496;28;20066;-51
2020/12/23 08:20:10;;;;;;;5.22;2.80;;;;;;;10.90;100.00;100371.28;4948110;28;20156;-48
2020/12/23 08:22:40;;;;;;;3.90;2.72;;;;;;;10.96;100.00;100374.09;4947895;28;20392;-50
2020/12/23 08:25:10;;;;;;;4.45;2.80;;;;;;;10.96;100.00;100363.41;4938021;28;20047;-50
2020/12/23 08:27:38;;;;;;;5.65;3.33;;;;;;;10.91;100.00;100376.44;4946566;29;21056;-48
2020/12/23 08:30:09;;;;;;;4.82;3.10;;;;;;;10.99;100.00;100372.91;4943747;28;20055;-53
2020/12/23 08:32:45;;;;;;;5.68;3.45;;;;;;;10.98;100.00;100355.22;4948170;28;20051;-46
2020/12/23 08:35:15;;;;;;;4.93;3.17;;;;;;;10.96;100.00;100360.75;4944819;28;20047;-47
2020/12/23 08:37:43;;;;;;;4.85;3.20;;;;;;;11.01;100.00;100354.84;4946141;28;20450;-47
2020/12/23 08:40:10;;;;;;;5.97;3.45;;;;;;;11.01;100.00;100361.03;4944653;29;20347;-50
2020/12/23 08:42:36;;;;;;;5.38;3.88;;;;;;;10.98;100.00;100353.34;4943865;28;20051;-50
2020/12/23 08:45:04;;;;;;;5.43;3.92;;;;;;;10.93;100.00;100353.09;4942354;29;20046;-52
2020/12/23 08:47:33;;;;;;;5.75;4.03;;;;;;;10.97;100.00;100359.75;4945627;28;20193;-50
2020/12/23 08:50:01;;;;;;;6.68;4.45;;;;;;;10.96;100.00;100352.72;4948700;28;20043;-48
2020/12/23 08:52:28;;;;;;;6.53;4.45;;;;;;;11.05;100.00;100360.69;4942020;28;20058;-50
2020/12/23 08:54:55;;;;;;;5.78;3.78;;;;;;;11.01;100.00;100353.03;4942929;28;20285;-53
2020/12/23 08:57:25;;;;;;;7.22;4.68;;;;;;;11.03;100.00;100359.00;4944728;29;20095;-49
2020/12/23 08:59:52;;;;;;;5.35;3.95;;;;;;;11.05;100.00;100356.16;4944312;28;20047;-49
2020/12/23 09:02:19;;;;;;;6.80;4.53;;;;;;;11.12;100.00;100356.28;4944878;29;20451;-48
2020/12/23 09:04:46;;;;;;;9.23;4.38;;;;;;;11.09;100.00;100353.97;4942651;28;20568;-53
2020/12/23 09:07:20;;;;;;;6.28;4.30;;;;;;;11.06;100.00;100346.28;4947839;28;20043;-46
2020/12/23 09:09:47;;;;;;;5.25;4.00;;;;;;;11.19;100.00;100334.00;4947594;28;20241;-51
2020/12/23 09:12:23;;;;;;;6.13;3.88;;;;;;;11.17;100.00;100337.88;4950613;28;20047;-49
2020/12/23 09:14:51;;;;;;;5.45;4.00;;;;;;;11.20;100.00;100345.56;4943733;28;20047;-49
2020/12/23 09:17:22;;;;;;;7.35;3.65;;;;;;;11.19;100.00;100342.03;4952710;28;20795;-47
2020/12/23 09:19:54;;;;;;;5.88;3.65;;;;;;;11.31;100.00;100338.94;4950849;29;20054;-50
2020/12/23 09:22:30;;;;;;;6.10;3.40;;;;;;;11.28;100.00;100344.66;4948494;28;20443;-53
2020/12/23 09:25:16;;;;;;;4.47;3.00;;;;;;;11.32;100.00;100346.78;4943915;29;20054;-51
2020/12/23 09:27:44;;;;;;;4.15;2.80;;;;;;;11.41;100.00;100344.03;4949438;28;20055;-49
2020/12/23 09:30:11;;;;;;;5.75;2.50;;;;;;;11.40;100.00;100353.06;4951685;28;20061;-52
2020/12/23 09:32:51;;;;;;;3.25;2.38;;;;;;;11.43;100.00;100353.53;4948761;29;20202;-51
2020/12/23 09:35:20;;;;;;;3.25;2.40;;;;;;;11.44;100.00;100349.03;4945077;28;20047;-50
2020/12/23 09:37:50;;;;;;;4.18;2.08;;;;;;;11.41;100.00;100354.72;4944757;28;20055;-46
2020/12/23 09:40:17;;;;;;;3.75;1.98;;;;;;;11.33;100.00;100343.09;4947917;28;20047;-48
2020/12/23 09:42:44;;;;;;;2.20;1.80;;;;;;;11.40;100.00;100356.59;4950496;28;20066;-48
2020/12/23 09:45:13;;;;;;;3.67;2.00;;;;;;;11.42;100.00;100343.03;4945691;28;20054;-50
2020/12/23 09:47:43;;;;;;;2.67;1.80;;;;;;;11.40;100.00;100353.91;4946498;28;21473;-51
2020/12/23 09:50:11;;;;;;;3.97;2.28;;;;;;;11.39;100.00;100354.09;4950586;29;20293;-53
2020/12/23 09:52:38;;;;;;;3.65;1.90;;;;;;;11.33;100.00;100353.78;4945326;28;20074;-50
2020/12/23 09:55:07;;;;;;;2.78;1.73;;;;;;;11.37;100.00;100339.06;4946404;28;20439;-50
2020/12/23 09:57:35;;;;;;;2.55;2.17;;;;;;;11.37;100.00;100339.06;4949460;28;20139;-52
2020/12/23 10:00:03;;;;;;;2.58;1.80;;;;;;;11.43;100.00;100339.34;4950434;28;20047;-52
2020/12/23 10:02:30;;;;;;;2.67;1.65;;;;;;;11.47;100.00;100336.13;4947927;28;20384;-52
2020/12/23 10:04:57;;;;;;;1.88;1.42;;;;;;;11.50;100.00;100332.28;4943855;28;20169;-51
2020/12/23 10:07:23;;;;;;;4.10;2.20;;;;;;;11.50;100.00;100321.56;4949539;29;20121;-52
2020/12/23 10:09:52;;;;;;;2.72;2.05;;;;;;;11.50;100.00;100321.56;4948480;28;20328;-51
2020/12/23 10:12:22;;;;;;;3.33;1.98;;;;;;;11.56;100.00;100320.84;4948207;28;20375;-52
2020/12/23 10:14:50;;;;;;;4.40;2.15;;;;;;;11.59;100.00;100314.31;4946928;28;20051;-47
2020/12/23 10:17:17;;;;;;;2.28;1.73;;;;;;;11.60;100.00;100311.44;4947927;28;20122;-46
2020/12/23 10:19:44;;;;;;;2.28;1.88;;;;;;;11.57;100.00;100310.97;4946910;28;20043;-51
2020/12/23 10:22:11;;;;;;;3.55;1.95;;;;;;;11.61;100.00;100318.47;4947413;28;20042;-50
2020/12/23 10:24:38;;;;;;;2.60;1.98;;;;;;;11.63;100.00;100316.41;4947719;28;20292;-47
2020/12/23 10:27:05;;;;;;;3.90;2.28;;;;;;;11.61;100.00;100309.59;4948326;28;20047;-47
2020/12/23 10:29:33;;;;;;;3.25;2.50;;;;;;;11.54;100.00;100304.16;4948007;28;20052;-52
2020/12/23 10:32:00;;;;;;;4.65;2.22;;;;;;;11.59;100.00;100304.44;4951956;28;20464;-47
2020/12/23 10:34:27;;;;;;;3.15;2.25;;;;;;;11.53;100.00;100289.94;4947592;29;20054;-49
2020/12/23 10:36:54;;;;;;;5.10;2.50;;;;;;;11.48;100.00;100294.16;4948151;28;20040;-50
2020/12/23 10:39:21;;;;;;;4.60;3.08;;;;;;;11.53;100.00;100294.47;4949499;28;20050;-50
2020/12/23 10:41:52;;;;;;;3.72;2.88;;;;;;;11.52;100.00;100292.78;4946154;28;20078;-51
2020/12/23 10:44:20;;;;;;;3.95;2.42;;;;;;;11.58;100.00;100284.06;4943670;28;20344;-51
2020/12/23 10:46:48;;;;;;;4.32;2.92;;;;;;;11.46;100.00;100274.81;4946352;28;20047;-49
2020/12/23 10:49:16;;;;;;;3.83;2.90;;;;;;;11.43;100.00;100256.47;4948515;28;20045;-51
2020/12/23 10:51:48;;;;;;;4.65;2.40;;;;;;;11.45;100.00;100217.81;4946843;29;20312;-53
2020/12/23 10:54:15;;;;;;;3.50;2.10;;;;;;;11.42;100.00;100212.03;4945682;28;20439;-48
2020/12/23 10:56:41;;;;;;;3.40;2.17;;;;;;;11.42;100.00;100207.50;4947631;29;20443;-53
2020/12/23 10:59:08;;;;;;;4.78;2.28;;;;;;;11.34;100.00;100205.75;4944493;28;20055;-52
2020/12/23 11:01:35;;;;;;;4.70;2.47;;;;;;;11.25;100.00;100201.50;4946359;28;20070;-51
2020/12/23 11:04:03;;;;;;;4.93;2.65;;;;;;;11.32;100.00;100173.00;4930843;29;20047;-50
2020/12/23 11:06:30;;;;;;;4.72;2.90;;;;;;;11.31;100.00;100138.47;4942762;28;20482;-49
2020/12/23 11:08:57;;;;;;;4.43;3.00;;;;;;;11.27;100.00;100171.91;4947575;29;20055;-52
2020/12/23 11:11:25;;;;;;;4.93;3.40;;;;;;;11.23;100.00;100195.50;4947421;28;20047;-49
2020/12/23 11:13:52;;;;;;;5.40;3.55;;;;;;;11.34;100.00;100194.22;4947634;29;20063;-53
2020/12/23 11:16:19;;;;;;;6.38;3.22;;;;;;;11.24;100.00;100210.53;4943530;28;20051;-51
2020/12/23 11:18:47;;;;;;;5.60;3.30;;;;;;;11.23;100.00;100205.34;4946904;28;20063;-53
2020/12/23 11:21:19;;;;;;;4.35;2.80;;;;;;;11.32;100.00;100209.63;4948641;28;20043;-52